Terminal Aerodrome Forecast
Issued by NWS

Home | Current Version | Previous Version | Text Only | Print | Product List | Glossary On
Versions: 1 2 3 4 5 6 7 8 9 10 11 12 13 14 15 16 17 18 19
000
FTUS41 KGYX 271238 AAA
TAFLEB
TAF AMD
KLEB 271238Z 2713/2812 32010KT P6SM BKN025 OVC050
     FM271400 35008KT P6SM -SHRA OVC015
     FM271700 35009G16KT P6SM -SHRA OVC025
     FM272200 36008KT P6SM OVC050=

USA.gov is the U.S. government's official web portal to all federal, state and local government web resources and services.